Sct Santiago — V7NF7 — position and weather

sailwx.info

Track history (hours):
 
Tides and Currents Weather Stations Pressure Air Temp Water Temp Dewpoint Dewpoint Depression Visibility Wind Speed Wind Dir Waves Ship Positions

Sct Santiago

Last reported at 2017-Apr-18 20:44 UTC. Time now 2017-Apr-27 22:41 UTC.
Position N 32°42' W 079°46'.
Warning: this ship's position is 9 days out of date.

Length 294 m; draft 9.7 m.

Type: Cargo ship. MMSI: 538002953.

Date/timePositionNaut miles runAvg speedWind from/ knotsBaromVisibWave heightAir tempDewpointWater temp
2017-Apr-18 20:44N 32°42' W 079°46'416.0
2017-Apr-18 20:30N 32°40' W 079°42'5 9.6
2017-Apr-18 20:00N 32°38' W 079°37'4 7.6
2017-Apr-18 19:30N 32°38' W 079°33'4 8.4
2017-Apr-18 19:00N 32°39' W 079°28'5 9.0
2017-Apr-18 18:30N 32°40' W 079°23'4 6.3
2017-Apr-18 17:52N 32°40' W 079°18'0 0.4
2017-Apr-18 17:30N 32°40' W 079°18'0 0.3
2017-Apr-18 16:27N 32°39' W 079°18'2 4.6
2017-Apr-18 16:00N 32°41' W 079°18'4 8.5
2017-Apr-18 15:30N 32°42' W 079°13'18311.1
2017-Apr-17 22:59N 34°14' W 076°03'911.3
2017-Apr-17 22:11N 34°20' W 075°54'211.0
2017-Apr-17 21:58N 34°21' W 075°52'510.9
2017-Apr-17 21:30N 34°25' W 075°48'510.5
2017-Apr-17 21:00N 34°28' W 075°43'5 9.7
2017-Apr-17 20:27N 34°32' W 075°38'4 9.3
2017-Apr-17 19:59N 34°35' W 075°34'5 9.4
2017-Apr-17 19:27N 34°38' W 075°30'30010.2
2017-Apr-16 14:08N 39°29' W 073°56'710.7
2017-Apr-16 13:30N 39°36' W 073°55'510.6
2017-Apr-16 13:00N 39°41' W 073°53'510.6
2017-Apr-16 12:30N 39°46' W 073°52'510.4
2017-Apr-16 12:00N 39°51' W 073°51'510.8
2017-Apr-16 11:30N 39°57' W 073°51'510.6
2017-Apr-16 11:00N 40°02' W 073°51'510.7
2017-Apr-16 10:30N 40°07' W 073°50'510.2
2017-Apr-16 09:58N 40°13' W 073°50'5 9.9
2017-Apr-16 09:25N 40°18' W 073°49'4 9.9
2017-Apr-16 08:59N 40°22' W 073°49'4 9.4
2017-Apr-16 08:30N 40°27' W 073°49'6 9.7
2017-Apr-16 07:52N 40°30' W 073°56'515.2
2017-Apr-16 07:30N 40°33' W 074°02'612.8
2017-Apr-16 07:01N 40°39' W 074°05'3 5.8
2017-Apr-16 06:30N 40°39' W 074°09'1 2.5
2017-Apr-16 06:00N 40°40' W 074°08'0 0.0
2017-Apr-16 05:30N 40°40' W 074°08'0 0.0
2017-Apr-16 05:00N 40°40' W 074°08'0 0.0
2017-Apr-16 04:30N 40°40' W 074°08'0 0.0
2017-Apr-16 04:00N 40°40' W 074°08'0 0.0
2017-Apr-16 03:30N 40°40' W 074°08'0 0.0
2017-Apr-16 03:00N 40°40' W 074°08'0 0.0
2017-Apr-16 02:30N 40°40' W 074°08'0 0.0
2017-Apr-16 02:00N 40°40' W 074°08'0 0.0
2017-Apr-16 01:30N 40°40' W 074°08'0 0.0
2017-Apr-16 01:00N 40°40' W 074°08'0 0.0
2017-Apr-16 00:30N 40°40' W 074°08'0 0.0
2017-Apr-16 00:00N 40°40' W 074°08'0 0.0
2017-Apr-15 23:30N 40°40' W 074°08'0 0.0
2017-Apr-15 23:00N 40°40' W 074°08'0 0.0
2017-Apr-15 22:30N 40°40' W 074°08'0 0.0
2017-Apr-15 22:00N 40°40' W 074°08'0 0.0
2017-Apr-15 21:30N 40°40' W 074°08'0 0.0
2017-Apr-15 21:00N 40°40' W 074°08'0 0.0
2017-Apr-15 20:30N 40°40' W 074°08'0 0.0
2017-Apr-15 20:00N 40°40' W 074°08'0 0.0
2017-Apr-15 19:30N 40°40' W 074°08'0 0.0
2017-Apr-15 19:00N 40°40' W 074°08'0 0.0
2017-Apr-15 18:30N 40°40' W 074°08'0 0.0
2017-Apr-15 18:00N 40°40' W 074°08'0 0.0
2017-Apr-15 17:31N 40°40' W 074°08'0 0.0
2017-Apr-15 17:00N 40°40' W 074°08'0 0.0
2017-Apr-15 16:30N 40°40' W 074°08'0 0.0
2017-Apr-15 16:00N 40°40' W 074°08'0 0.0
2017-Apr-15 15:30N 40°40' W 074°08'0 0.0
2017-Apr-15 15:00N 40°40' W 074°08'0 0.0
2017-Apr-15 14:30N 40°40' W 074°08'0 0.0
2017-Apr-15 13:30N 40°40' W 074°08'0 0.0
2017-Apr-15 13:00N 40°40' W 074°08'0 0.0
2017-Apr-15 12:30N 40°40' W 074°08'0 0.0
2017-Apr-15 12:00N 40°40' W 074°08'0 0.0
2017-Apr-15 11:30N 40°40' W 074°08'0 0.0
2017-Apr-15 11:00N 40°40' W 074°08'0 0.0
2017-Apr-15 10:30N 40°40' W 074°08'0 0.0
2017-Apr-15 10:00N 40°40' W 074°08'0 0.1
2017-Apr-15 09:30N 40°40' W 074°08'2 3.5
2017-Apr-15 09:00N 40°39' W 074°08'3 6.7
2017-Apr-15 08:30N 40°38' W 074°03'4 8.7
2017-Apr-15 08:00N 40°34' W 074°02'611.5
2017-Apr-15 07:30N 40°30' W 073°56'510.7
2017-Apr-15 07:00N 40°28' W 073°50'4 7.8
2017-Apr-15 06:30N 40°27' W 073°45'4 8.7
2017-Apr-15 06:00N 40°27' W 073°39'510.4
2017-Apr-15 05:30N 40°28' W 073°33'714.3
2017-Apr-15 05:00N 40°28' W 073°23'914.3
2017-Apr-15 04:24N 40°29' W 073°12'  
2017-Apr-09 00:26N 49°19' W 006°45'2918.1
2017-Apr-08 22:50N 49°26' W 006°02'616.7
2017-Apr-08 22:30N 49°28' W 005°54'1018.9
2017-Apr-08 21:59N 49°31' W 005°39'  
Track history (hours):
 
Tides and Currents Weather Stations Pressure Air Temp Water Temp Dewpoint Dewpoint Depression Visibility Wind Speed Wind Dir Waves Ship Positions

Sct Santiago

Last reported at 2017-Apr-18 20:44 UTC. Time now 2017-Apr-27 22:41 UTC.
Position N 32°42' W 079°46'.
Warning: this ship's position is 9 days out of date.

Length 294 m; draft 9.7 m.

Type: Cargo ship. MMSI: 538002953.

Date/timePositionNaut miles runAvg speedWind from/ knotsBaromVisibWave heightAir tempDewpointWater temp
2017-Apr-18 20:44N 32°42' W 079°46'416.0
2017-Apr-18 20:30N 32°40' W 079°42'5 9.6
2017-Apr-18 20:00N 32°38' W 079°37'4 7.6
2017-Apr-18 19:30N 32°38' W 079°33'4 8.4
2017-Apr-18 19:00N 32°39' W 079°28'5 9.0
2017-Apr-18 18:30N 32°40' W 079°23'4 6.3
2017-Apr-18 17:52N 32°40' W 079°18'0 0.4
2017-Apr-18 17:30N 32°40' W 079°18'0 0.3
2017-Apr-18 16:27N 32°39' W 079°18'2 4.6
2017-Apr-18 16:00N 32°41' W 079°18'4 8.5
2017-Apr-18 15:30N 32°42' W 079°13'18311.1
2017-Apr-17 22:59N 34°14' W 076°03'911.3
2017-Apr-17 22:11N 34°20' W 075°54'211.0
2017-Apr-17 21:58N 34°21' W 075°52'510.9
2017-Apr-17 21:30N 34°25' W 075°48'510.5
2017-Apr-17 21:00N 34°28' W 075°43'5 9.7
2017-Apr-17 20:27N 34°32' W 075°38'4 9.3
2017-Apr-17 19:59N 34°35' W 075°34'5 9.4
2017-Apr-17 19:27N 34°38' W 075°30'30010.2
2017-Apr-16 14:08N 39°29' W 073°56'710.7
2017-Apr-16 13:30N 39°36' W 073°55'510.6
2017-Apr-16 13:00N 39°41' W 073°53'510.6
2017-Apr-16 12:30N 39°46' W 073°52'510.4
2017-Apr-16 12:00N 39°51' W 073°51'510.8
2017-Apr-16 11:30N 39°57' W 073°51'510.6
2017-Apr-16 11:00N 40°02' W 073°51'510.7
2017-Apr-16 10:30N 40°07' W 073°50'510.2
2017-Apr-16 09:58N 40°13' W 073°50'5 9.9
2017-Apr-16 09:25N 40°18' W 073°49'4 9.9
2017-Apr-16 08:59N 40°22' W 073°49'4 9.4
2017-Apr-16 08:30N 40°27' W 073°49'6 9.7
2017-Apr-16 07:52N 40°30' W 073°56'515.2
2017-Apr-16 07:30N 40°33' W 074°02'612.8
2017-Apr-16 07:01N 40°39' W 074°05'3 5.8
2017-Apr-16 06:30N 40°39' W 074°09'1 2.5
2017-Apr-16 06:00N 40°40' W 074°08'0 0.0
2017-Apr-16 05:30N 40°40' W 074°08'0 0.0
2017-Apr-16 05:00N 40°40' W 074°08'0 0.0
2017-Apr-16 04:30N 40°40' W 074°08'0 0.0
2017-Apr-16 04:00N 40°40' W 074°08'0 0.0
2017-Apr-16 03:30N 40°40' W 074°08'0 0.0
2017-Apr-16 03:00N 40°40' W 074°08'0 0.0
2017-Apr-16 02:30N 40°40' W 074°08'0 0.0
2017-Apr-16 02:00N 40°40' W 074°08'0 0.0
2017-Apr-16 01:30N 40°40' W 074°08'0 0.0
2017-Apr-16 01:00N 40°40' W 074°08'0 0.0
2017-Apr-16 00:30N 40°40' W 074°08'0 0.0
2017-Apr-16 00:00N 40°40' W 074°08'0 0.0
2017-Apr-15 23:30N 40°40' W 074°08'0 0.0
2017-Apr-15 23:00N 40°40' W 074°08'0 0.0
2017-Apr-15 22:30N 40°40' W 074°08'0 0.0
2017-Apr-15 22:00N 40°40' W 074°08'0 0.0
2017-Apr-15 21:30N 40°40' W 074°08'0 0.0
2017-Apr-15 21:00N 40°40' W 074°08'0 0.0
2017-Apr-15 20:30N 40°40' W 074°08'0 0.0
2017-Apr-15 20:00N 40°40' W 074°08'0 0.0
2017-Apr-15 19:30N 40°40' W 074°08'0 0.0
2017-Apr-15 19:00N 40°40' W 074°08'0 0.0
2017-Apr-15 18:30N 40°40' W 074°08'0 0.0
2017-Apr-15 18:00N 40°40' W 074°08'0 0.0
2017-Apr-15 17:31N 40°40' W 074°08'0 0.0
2017-Apr-15 17:00N 40°40' W 074°08'0 0.0
2017-Apr-15 16:30N 40°40' W 074°08'0 0.0
2017-Apr-15 16:00N 40°40' W 074°08'0 0.0
2017-Apr-15 15:30N 40°40' W 074°08'0 0.0
2017-Apr-15 15:00N 40°40' W 074°08'0 0.0
2017-Apr-15 14:30N 40°40' W 074°08'0 0.0
2017-Apr-15 13:30N 40°40' W 074°08'0 0.0
2017-Apr-15 13:00N 40°40' W 074°08'0 0.0
2017-Apr-15 12:30N 40°40' W 074°08'0 0.0
2017-Apr-15 12:00N 40°40' W 074°08'0 0.0
2017-Apr-15 11:30N 40°40' W 074°08'0 0.0
2017-Apr-15 11:00N 40°40' W 074°08'0 0.0
2017-Apr-15 10:30N 40°40' W 074°08'0 0.0
2017-Apr-15 10:00N 40°40' W 074°08'0 0.1
2017-Apr-15 09:30N 40°40' W 074°08'2 3.5
2017-Apr-15 09:00N 40°39' W 074°08'3 6.7
2017-Apr-15 08:30N 40°38' W 074°03'4 8.7
2017-Apr-15 08:00N 40°34' W 074°02'611.5
2017-Apr-15 07:30N 40°30' W 073°56'510.7
2017-Apr-15 07:00N 40°28' W 073°50'4 7.8
2017-Apr-15 06:30N 40°27' W 073°45'4 8.7
2017-Apr-15 06:00N 40°27' W 073°39'510.4
2017-Apr-15 05:30N 40°28' W 073°33'714.3
2017-Apr-15 05:00N 40°28' W 073°23'914.3
2017-Apr-15 04:24N 40°29' W 073°12'  
2017-Apr-09 00:26N 49°19' W 006°45'2918.1
2017-Apr-08 22:50N 49°26' W 006°02'616.7
2017-Apr-08 22:30N 49°28' W 005°54'1018.9
2017-Apr-08 21:59N 49°31' W 005°39'  

Dump ship's entire track history